Time;durP1;ratioP1;P1;durP2;ratioP2;P2;SDS_P1;SDS_P2;PMS_P1;PMS_P2;Temp;Humidity;BMP_temperature;BMP_pressure;BME280_temperature;BME280_humidity;BME280_pressure;Samples;Min_cycle;Max_cycle;Signal;HPM_P1;HPM_P2
2023/10/17 00:02:10;;;;;;;;;17.80;17.60;;;;;9.13;47.46;99866.31;5129801;27;8834;-73
2023/10/17 00:04:41;;;;;;;;;23.00;19.00;;;;;9.09;47.30;99860.22;5129686;27;8922;-75
2023/10/17 00:07:13;;;;;;;;;20.00;16.00;;;;;9.11;47.03;99858.47;5077437;27;8846;-74
2023/10/17 00:09:42;;;;;;;;;16.60;15.00;;;;;9.07;46.97;99853.28;5132322;27;8845;-76
2023/10/17 00:12:25;;;;;;;;;21.40;20.40;;;;;9.08;46.96;99853.22;5151042;27;8903;-76
2023/10/17 00:15:09;;;;;;;;;16.00;15.80;;;;;9.11;46.88;99847.97;5133890;27;8893;-73
2023/10/17 00:17:38;;;;;;;;;22.20;20.40;;;;;9.08;46.69;99844.50;5134592;27;8920;-75
2023/10/17 00:20:16;;;;;;;;;20.20;17.20;;;;;9.03;46.96;99837.56;5138575;27;8946;-75
2023/10/17 00:22:46;;;;;;;;;24.00;18.20;;;;;9.00;47.87;99827.09;5131768;27;8854;-75
2023/10/17 00:25:17;;;;;;;;;22.60;22.60;;;;;9.02;47.71;99832.31;5132252;27;8885;-76
2023/10/17 00:27:46;;;;;;;;;27.60;23.60;;;;;9.04;47.92;99822.69;5118067;27;8865;-76
2023/10/17 00:30:18;;;;;;;;;19.40;18.20;;;;;8.99;47.26;99819.28;5132889;27;8863;-73
2023/10/17 00:32:47;;;;;;;;;28.20;27.80;;;;;9.01;47.55;99826.22;5063538;27;8905;-72
2023/10/17 00:35:18;;;;;;;;;28.20;25.80;;;;;9.03;47.04;99831.47;5078302;27;8945;-75
2023/10/17 00:37:57;;;;;;;;;23.40;23.40;;;;;9.01;47.29;99827.97;5130503;27;9610;-75
2023/10/17 00:40:44;;;;;;;;;24.60;23.60;;;;;9.02;47.27;99827.94;5114479;27;8838;-77
2023/10/17 00:43:13;;;;;;;;;25.60;22.80;;;;;9.00;47.45;99828.84;5133867;27;8845;-78
2023/10/17 00:45:45;;;;;;;;;25.20;24.60;;;;;8.99;47.59;99830.63;5116919;27;8877;-76
2023/10/17 00:48:22;;;;;;;;;28.40;24.60;;;;;9.03;47.39;99826.22;5133935;27;8919;-74
2023/10/17 00:50:56;;;;;;;;;29.60;25.80;;;;;8.99;46.82;99824.50;5130345;27;8927;-78
2023/10/17 00:53:27;;;;;;;;;26.40;23.80;;;;;8.96;47.18;99820.16;5113088;27;8830;-78
2023/10/17 00:55:56;;;;;;;;;28.40;22.80;;;;;8.94;46.94;99827.16;5112201;27;8893;-77
2023/10/17 00:58:27;;;;;;;;;29.20;27.60;;;;;8.95;46.78;99822.78;5090920;28;8840;-77
2023/10/17 01:01:09;;;;;;;;;29.20;25.40;;;;;8.95;46.84;99830.63;5107450;28;8867;-78
2023/10/17 01:03:42;;;;;;;;;21.80;20.80;;;;;8.98;47.03;99831.47;5107683;28;8876;-76
2023/10/17 01:06:23;;;;;;;;;24.20;21.80;;;;;9.01;46.40;99834.09;5107607;28;8891;-74
2023/10/17 01:08:54;;;;;;;;;23.20;23.20;;;;;8.99;46.63;99825.38;5074114;28;8835;-77
2023/10/17 01:11:27;;;;;;;;;25.00;23.00;;;;;8.93;47.11;99822.81;5089392;28;8902;-74
2023/10/17 01:13:58;;;;;;;;;28.40;25.20;;;;;8.94;46.91;99810.56;5107800;28;8835;-78
2023/10/17 01:16:31;;;;;;;;;25.20;24.20;;;;;8.98;47.26;99801.78;5107682;28;8887;-77
2023/10/17 01:19:04;;;;;;;;;27.20;25.20;;;;;8.93;47.29;99796.59;5090456;28;8855;-76
2023/10/17 01:21:33;;;;;;;;;22.40;19.40;;;;;8.94;47.27;99795.69;5107436;28;8859;-75
2023/10/17 01:24:05;;;;;;;;;24.00;22.60;;;;;8.94;47.53;99800.94;5107620;28;8932;-79
2023/10/17 01:26:37;;;;;;;;;21.40;21.40;;;;;8.85;47.26;99793.16;5089276;28;9627;-73
2023/10/17 01:29:10;;;;;;;;;20.80;19.00;;;;;8.84;47.57;99792.31;5096591;27;8878;-74
2023/10/17 01:31:43;;;;;;;;;23.40;22.80;;;;;8.81;47.46;99791.47;5088102;28;8864;-76
2023/10/17 01:34:12;;;;;;;;;21.00;20.80;;;;;8.75;47.36;99789.78;5070122;28;8857;-76
2023/10/17 01:36:42;;;;;;;;;23.60;22.00;;;;;8.74;47.26;99793.28;5103438;28;8899;-76
2023/10/17 01:39:13;;;;;;;;;20.60;20.40;;;;;8.73;47.14;99796.78;5108790;28;8853;-78
2023/10/17 01:41:46;;;;;;;;;20.40;16.40;;;;;8.70;46.78;99794.19;5089793;28;8861;-76
2023/10/17 01:44:15;;;;;;;;;21.80;21.00;;;;;8.65;46.73;99789.00;5108118;28;8833;-78
2023/10/17 01:46:44;;;;;;;;;21.00;20.20;;;;;8.62;46.66;99789.00;5109033;28;8941;-76
2023/10/17 01:49:13;;;;;;;;;22.80;21.40;;;;;8.62;46.89;99791.63;5073511;28;8849;-74
2023/10/17 01:51:44;;;;;;;;;21.00;20.40;;;;;8.61;46.66;99797.78;5107561;28;8833;-75
2023/10/17 01:54:16;;;;;;;;;18.00;17.60;;;;;8.62;47.28;99798.63;5108065;28;8968;-76
2023/10/17 01:56:48;;;;;;;;;21.00;20.80;;;;;8.61;46.65;99796.88;5089774;28;8833;-72
2023/10/17 01:59:25;;;;;;;;;20.40;19.60;;;;;8.59;46.98;99796.91;5107795;28;8841;-74
2023/10/17 02:01:59;;;;;;;;;23.40;21.00;;;;;8.61;46.97;99789.03;5107838;28;9010;-78
2023/10/17 02:04:29;;;;;;;;;23.20;20.80;;;;;8.52;46.68;99778.66;5108155;28;8853;-77
2023/10/17 02:06:58;;;;;;;;;23.20;20.80;;;;;8.46;46.66;99787.44;5108291;28;8991;-77
2023/10/17 02:09:44;;;;;;;;;29.20;26.80;;;;;8.39;47.26;99783.97;5108963;28;8887;-75
2023/10/17 02:12:15;;;;;;;;;20.40;20.00;;;;;8.38;46.94;99795.34;5089461;28;8926;-79
2023/10/17 02:14:45;;;;;;;;;24.00;19.80;;;;;8.43;47.10;99796.16;5091754;28;8834;-72
2023/10/17 02:17:18;;;;;;;;;21.40;20.60;;;;;8.48;46.56;99796.16;5109504;28;8841;-76
2023/10/17 02:19:47;;;;;;;;;16.40;16.40;;;;;8.45;46.57;99797.00;5109348;28;8879;-76
2023/10/17 02:22:16;;;;;;;;;18.60;18.60;;;;;8.51;47.06;99782.13;5074491;28;8859;-76
2023/10/17 02:24:47;;;;;;;;;17.80;13.80;;;;;8.55;46.71;99786.47;5109633;28;8813;-75
2023/10/17 02:27:21;;;;;;;;;22.80;21.20;;;;;8.53;47.11;99790.84;5108046;28;9709;-77
2023/10/17 02:29:53;;;;;;;;;22.00;19.80;;;;;8.55;46.51;99786.47;5094911;27;9635;-78
2023/10/17 02:32:21;;;;;;;;;19.00;15.40;;;;;8.54;46.69;99788.22;5129058;27;8901;-77
2023/10/17 02:34:50;;;;;;;;;21.20;20.00;;;;;8.54;47.04;99792.59;5129519;27;8862;-76
2023/10/17 02:37:29;;;;;;;;;24.60;21.20;;;;;8.52;46.80;99791.75;5128288;27;9069;-79
2023/10/17 02:40:16;;;;;;;;;22.20;21.00;;;;;8.53;47.27;99798.72;5096548;27;8838;-77
2023/10/17 02:42:45;;;;;;;;;21.40;18.20;;;;;8.53;47.05;99801.31;5109247;27;8822;-77
2023/10/17 02:45:24;;;;;;;;;21.00;19.60;;;;;8.50;46.85;99796.13;5129185;27;8911;-78
2023/10/17 02:47:54;;;;;;;;;26.00;24.00;;;;;8.47;47.05;99794.38;5129507;27;9598;-77
2023/10/17 02:53:06;;;;;;;;;19.00;18.40;;;;;8.46;46.76;99792.66;5107766;28;8959;-75
2023/10/17 02:55:37;;;;;;;;;22.40;19.00;;;;;8.37;47.12;99801.47;5109236;28;8853;-75
2023/10/17 02:58:06;;;;;;;;;21.60;20.40;;;;;8.39;46.98;99796.22;5090360;28;8857;-76
2023/10/17 03:00:35;;;;;;;;;19.40;19.20;;;;;8.42;47.11;99796.16;5108819;28;9090;-79
2023/10/17 03:03:12;;;;;;;;;27.80;22.20;;;;;8.43;47.81;99801.41;5090181;28;8841;-75
2023/10/17 03:05:44;;;;;;;;;28.80;24.60;;;;;8.44;47.39;99807.53;5106940;28;8845;-75
2023/10/17 03:08:15;;;;;;;;;27.80;26.20;;;;;8.44;47.01;99808.41;5117388;27;8898;-77
2023/10/17 03:10:47;;;;;;;;;24.00;24.00;;;;;8.45;47.16;99811.88;5127821;27;8847;-77
2023/10/17 03:13:23;;;;;;;;;20.80;19.20;;;;;8.47;47.22;99809.25;5127448;27;8838;-78
2023/10/17 03:15:57;;;;;;;;;22.20;20.00;;;;;8.43;46.71;99813.63;5110922;28;8837;-76
2023/10/17 03:18:26;;;;;;;;;21.20;20.60;;;;;8.42;47.17;99815.41;5107649;28;8853;-75
2023/10/17 03:20:54;;;;;;;;;28.20;22.20;;;;;8.38;46.75;99808.44;5107260;28;8913;-74
2023/10/17 03:23:28;;;;;;;;;26.60;25.00;;;;;8.36;47.26;99815.41;5047582;28;8977;-73
2023/10/17 03:26:00;;;;;;;;;30.80;27.00;;;;;8.39;48.18;99810.16;5089293;28;8906;-76
2023/10/17 03:28:33;;;;;;;;;26.00;25.00;;;;;8.29;47.58;99812.81;5088371;28;9041;-77
2023/10/17 03:31:10;;;;;;;;;20.80;20.80;;;;;8.29;47.49;99810.22;5105653;28;8857;-79
2023/10/17 03:33:40;;;;;;;;;34.00;33.00;;;;;8.29;47.96;99813.72;5088762;28;8979;-76
2023/10/17 03:36:40;;;;;;;;;22.20;19.40;;;;;8.29;47.76;99815.44;5105578;28;8888;-77
2023/10/17 03:39:18;;;;;;;;;30.60;26.40;;;;;8.30;47.04;99806.72;5083736;28;8837;-76
2023/10/17 03:41:49;;;;;;;;;30.40;28.80;;;;;8.31;47.47;99812.00;5086925;28;8821;-76
2023/10/17 03:44:18;;;;;;;;;29.60;28.80;;;;;8.30;48.54;99805.00;5055819;28;8849;-76
2023/10/17 03:46:48;;;;;;;;;30.00;28.20;;;;;8.32;48.67;99805.84;5072051;28;8876;-74
2023/10/17 03:49:19;;;;;;;;;28.60;28.00;;;;;8.31;47.94;99803.25;5080491;28;9020;-77
2023/10/17 03:51:52;;;;;;;;;33.80;29.60;;;;;8.28;48.16;99798.88;5088962;28;8896;-74
2023/10/17 03:54:22;;;;;;;;;67.50;53.25;;;;;8.27;47.73;99797.16;5087680;28;8953;-77
2023/10/17 03:57:02;;;;;;;;;42.00;37.50;;;;;8.23;47.85;99796.31;5088895;28;9034;-77
2023/10/17 03:59:38;;;;;;;;;43.00;38.25;;;;;8.20;47.59;99796.31;5088929;28;8846;-76
2023/10/17 04:02:12;;;;;;;;;31.80;30.20;;;;;8.12;48.35;99800.75;5089463;28;9004;-75
2023/10/17 04:04:49;;;;;;;;;34.40;33.00;;;;;8.09;48.66;99794.66;5074262;28;8842;-76
2023/10/17 04:07:21;;;;;;;;;29.00;27.40;;;;;8.09;48.43;99789.41;5089608;28;8870;-78
2023/10/17 04:10:17;;;;;;;;;32.00;29.80;;;;;8.10;48.53;99791.13;5088419;28;8857;-75
2023/10/17 04:12:58;;;;;;;;;39.80;33.20;;;;;8.13;48.65;99781.53;5088413;28;8842;-76
2023/10/17 04:15:28;;;;;;;;;34.00;32.40;;;;;8.12;48.23;99787.66;5071757;28;8849;-77
2023/10/17 04:18:00;;;;;;;;;30.50;30.50;;;;;8.02;48.68;99778.09;5088160;28;8854;-73
2023/10/17 04:20:36;;;;;;;;;34.80;32.60;;;;;8.03;48.49;99779.84;5089327;28;9958;-76
2023/10/17 04:23:05;;;;;;;;;33.75;31.50;;;;;8.00;49.00;99769.41;5093817;28;8844;-79
2023/10/17 04:25:37;;;;;;;;;35.50;35.50;;;;;7.96;48.63;99776.41;5111217;28;8833;-77
2023/10/17 04:28:08;;;;;;;;;56.00;46.00;;;;;7.97;49.18;99774.66;5109356;28;8857;-74
2023/10/17 04:30:46;;;;;;;;;46.50;41.00;;;;;7.94;49.10;99778.16;5132031;27;8867;-78
2023/10/17 04:33:19;;;;;;;;;47.75;41.00;;;;;7.96;49.55;99779.00;5152411;27;8851;-76
2023/10/17 04:35:55;;;;;;;;;45.25;38.25;;;;;7.96;49.65;99773.78;5091113;28;8891;-76
2023/10/17 04:38:36;;;;;;;;;43.25;38.25;;;;;7.94;49.34;99774.69;5092173;28;8839;-76
2023/10/17 04:41:30;;;;;;;;;42.25;37.75;;;;;7.96;49.78;99776.41;5108062;28;9024;-76
2023/10/17 04:44:04;;;;;;;;;63.25;52.25;;;;;7.94;49.70;99772.06;5106537;28;8851;-76
2023/10/17 04:46:45;;;;;;;;;83.50;61.75;;;;;7.93;49.40;99781.69;5087854;28;8896;-75
2023/10/17 04:49:18;;;;;;;;;44.00;39.50;;;;;7.79;49.97;99781.72;5086846;28;8838;-79
2023/10/17 04:51:52;;;;;;;;;54.75;43.00;;;;;7.82;49.94;99779.13;5053603;28;8854;-76
2023/10/17 04:54:30;;;;;;;;;47.75;41.25;;;;;7.82;50.23;99779.13;5055432;28;8841;-77
2023/10/17 04:57:00;;;;;;;;;45.50;38.75;;;;;7.82;49.88;99778.25;5106447;28;8953;-76
2023/10/17 05:02:47;;;;;;;;;51.33;43.00;;;;;7.77;50.57;99796.56;5085940;28;8896;-76
2023/10/17 05:08:17;;;;;;;;;55.25;46.00;;;;;7.84;50.72;99795.66;5034487;28;8857;-73
2023/10/17 06:18:01;;;;;;;;;65.75;54.00;;;;;8.99;49.27;99819.28;4935386;28;8844;-78
2023/10/17 06:24:06;;;;;;;;;54.75;47.00;;;;;8.78;50.86;99820.31;5138864;27;1360672;-77
2023/10/17 06:32:06;;;;;;;;;54.75;46.00;;;;;9.29;47.76;99807.56;5155320;27;8840;-74
2023/10/17 06:34:34;;;;;;;;;48.25;42.00;;;;;9.32;47.61;99811.91;5118473;27;8833;-77
2023/10/17 06:37:07;;;;;;;;;51.50;44.00;;;;;9.12;48.42;99813.00;5149354;27;8860;-74
2023/10/17 06:39:45;;;;;;;;;51.25;44.25;;;;;9.20;48.73;99802.44;5138604;27;8837;-78
2023/10/17 06:42:14;;;;;;;;;50.25;42.00;;;;;9.02;49.50;99812.22;5127453;27;9680;-72
2023/10/17 06:44:53;;;;;;;;;52.00;44.50;;;;;8.96;49.80;99814.03;5156631;27;8857;-76
2023/10/17 06:47:30;;;;;;;;;52.75;42.25;;;;;8.95;49.67;99813.19;5160894;27;8859;-76
2023/10/17 06:53:02;;;;;;;;;56.00;46.25;;;;;9.10;49.81;99830.50;5062200;28;8851;-76
2023/10/17 06:55:38;;;;;;;;;54.00;45.50;;;;;9.18;49.60;99830.44;5045291;28;8993;-74
2023/10/17 06:58:10;;;;;;;;;52.25;43.75;;;;;9.15;49.38;99835.69;5063120;28;8819;-79
2023/10/17 07:00:51;;;;;;;;;57.50;45.50;;;;;9.12;49.50;99833.09;5014954;28;8856;-75
2023/10/17 07:03:25;;;;;;;;;55.25;45.00;;;;;9.38;49.27;99841.56;5046208;28;8843;-76
2023/10/17 07:06:10;;;;;;;;;57.50;47.25;;;;;9.59;48.92;99837.88;5061804;28;8885;-77
2023/10/17 07:08:42;;;;;;;;;48.00;40.50;;;;;9.59;47.75;99832.63;5062170;28;8895;-75
2023/10/17 07:11:26;;;;;;;;;46.75;39.00;;;;;9.58;47.57;99841.38;5028880;28;8844;-79
2023/10/17 07:14:21;;;;;;;;;49.75;40.75;;;;;9.82;47.05;99837.56;5045594;28;8873;-75
2023/10/17 07:16:57;;;;;;;;;46.75;40.00;;;;;9.91;46.78;99835.69;5062180;28;8866;-75
2023/10/17 07:22:16;;;;;;;;;35.00;34.00;;;;;10.07;45.75;99839.84;5021404;28;8851;-73
2023/10/17 07:24:48;;;;;;;;;41.80;36.20;;;;;9.97;45.40;99833.88;5021405;28;8887;-78
2023/10/17 07:27:33;;;;;;;;;34.00;33.60;;;;;10.18;45.04;99835.31;5005174;28;8864;-75
2023/10/17 07:30:13;;;;;;;;;30.60;30.60;;;;;10.37;44.88;99825.41;5065440;28;8882;-74
2023/10/17 07:32:49;;;;;;;;;28.40;28.40;;;;;10.41;44.28;99823.59;5100378;28;9057;-76
2023/10/17 07:35:24;;;;;;;;;23.40;19.80;;;;;10.45;43.10;99819.16;5088785;28;8844;-76
2023/10/17 07:37:57;;;;;;;;;30.60;28.80;;;;;10.51;43.21;99819.03;5089311;28;9710;-73
2023/10/17 07:40:33;;;;;;;;;36.00;33.20;;;;;10.62;43.40;99821.50;5088556;28;8877;-75
2023/10/17 07:43:05;;;;;;;;;35.20;32.40;;;;;10.85;43.65;99819.38;5088358;28;8861;-76
2023/10/17 07:45:43;;;;;;;;;26.20;24.00;;;;;10.95;41.64;99804.28;5088348;28;8842;-76
2023/10/17 07:48:23;;;;;;;;;25.40;24.80;;;;;10.96;41.94;99806.03;5068129;28;8879;-74
2023/10/17 07:50:54;;;;;;;;;28.00;26.80;;;;;11.03;41.81;99812.91;5084051;28;8840;-76
2023/10/17 07:53:23;;;;;;;;;27.60;26.60;;;;;11.14;41.20;99810.06;5078672;28;8891;-75
2023/10/17 07:56:03;;;;;;;;;26.60;26.60;;;;;11.10;41.61;99809.25;5087878;28;8850;-73
2023/10/17 07:58:41;;;;;;;;;31.00;27.00;;;;;11.21;41.74;99805.56;5096821;27;8985;-72
2023/10/17 08:01:16;;;;;;;;;22.80;22.60;;;;;11.13;41.90;99803.09;5151811;27;8824;-75
2023/10/17 08:03:57;;;;;;;;;30.80;30.60;;;;;11.21;42.32;99811.69;5152267;27;8894;-75
2023/10/17 08:06:30;;;;;;;;;27.40;26.40;;;;;11.31;41.71;99815.00;5138588;27;10023;-75
2023/10/17 08:09:00;;;;;;;;;25.40;23.40;;;;;11.20;41.57;99816.97;5131622;27;8842;-76
2023/10/17 08:11:31;;;;;;;;;28.80;26.00;;;;;11.30;41.09;99811.50;5131863;27;8822;-77
2023/10/17 08:14:09;;;;;;;;;23.60;22.20;;;;;11.37;41.23;99815.75;5095858;27;8822;-75
2023/10/17 08:16:41;;;;;;;;;19.20;18.00;;;;;11.29;40.63;99816.81;5131395;27;8848;-77
2023/10/17 08:19:14;;;;;;;;;22.40;21.20;;;;;11.36;40.74;99824.53;5142390;27;8839;-75
2023/10/17 08:24:34;;;;;;;;;28.80;24.00;;;;;11.59;39.94;99827.63;5047175;28;8860;-76
2023/10/17 08:27:17;;;;;;;;;31.80;31.00;;;;;11.50;40.95;99820.75;5047251;28;8946;-79
2023/10/17 08:29:49;;;;;;;;;34.20;30.80;;;;;11.75;40.53;99823.78;5030076;28;8885;-75
2023/10/17 08:32:38;;;;;;;;;37.50;33.75;;;;;11.71;41.12;99817.69;5047258;28;8853;-79
2023/10/17 08:35:18;;;;;;;;;41.50;36.75;;;;;11.77;41.63;99822.84;5028744;28;9017;-76
2023/10/17 08:37:47;;;;;;;;;35.50;32.25;;;;;11.92;40.93;99821.66;4998179;28;8974;-76
2023/10/17 08:40:31;;;;;;;;;40.50;35.50;;;;;11.94;40.79;99830.41;5027197;28;8902;-79
2023/10/17 08:43:03;;;;;;;;;38.25;33.75;;;;;12.02;41.18;99827.59;5027383;28;8883;-77
2023/10/17 08:45:37;;;;;;;;;38.60;35.20;;;;;11.98;41.05;99836.47;5009767;28;8863;-76
2023/10/17 08:48:09;;;;;;;;;40.50;35.50;;;;;11.85;42.15;99837.66;5010714;28;8862;-78
2023/10/17 08:50:39;;;;;;;;;35.80;32.60;;;;;11.96;41.44;99838.28;5027348;28;9010;-77
2023/10/17 08:53:13;;;;;;;;;35.60;32.40;;;;;11.90;41.74;99839.28;5027264;28;8949;-80
2023/10/17 08:55:42;;;;;;;;;31.80;31.40;;;;;11.96;40.70;99846.19;5031588;28;8852;-78
2023/10/17 08:58:11;;;;;;;;;26.60;25.60;;;;;12.06;39.70;99834.53;5046926;28;8888;-77
2023/10/17 09:00:55;;;;;;;;;26.20;26.20;;;;;12.10;39.00;99830.06;5006727;28;8848;-77
2023/10/17 09:03:28;;;;;;;;;26.40;23.00;;;;;12.19;38.96;99835.13;5106311;28;8865;-81
2023/10/17 09:06:06;;;;;;;;;30.20;27.60;;;;;12.28;39.55;99840.19;5100426;28;9458;-76
2023/10/17 09:08:51;;;;;;;;;29.60;28.20;;;;;12.08;38.87;99837.13;5085125;28;8859;-75
2023/10/17 09:11:30;;;;;;;;;26.00;23.00;;;;;12.20;38.37;99843.88;5059651;28;8901;-76
2023/10/17 09:14:15;;;;;;;;;19.00;16.60;;;;;12.38;37.57;99838.19;5086783;28;8959;-72
2023/10/17 09:17:10;;;;;;;;;17.80;17.80;;;;;12.56;37.37;99838.63;5095447;28;8857;-72
2023/10/17 09:19:40;;;;;;;;;13.40;12.20;;;;;12.40;37.25;99833.75;5095105;28;8878;-75
2023/10/17 09:22:10;;;;;;;;;21.40;21.40;;;;;12.48;37.42;99836.19;5045288;28;8933;-73
2023/10/17 09:24:40;;;;;;;;;22.20;20.60;;;;;12.64;37.63;99839.34;5067248;28;8852;-75
2023/10/17 09:27:12;;;;;;;;;20.40;19.20;;;;;12.74;36.87;99839.06;5066525;28;8864;-75
2023/10/17 09:29:47;;;;;;;;;18.40;18.00;;;;;12.85;37.24;99825.63;5066082;28;8843;-76
2023/10/17 09:32:35;;;;;;;;;28.40;24.00;;;;;13.06;36.76;99826.84;5080843;28;9570;-75
2023/10/17 09:35:10;;;;;;;;;22.40;19.80;;;;;13.09;36.52;99823.22;5089429;28;8851;-76
2023/10/17 09:37:42;;;;;;;;;25.60;23.00;;;;;13.09;36.34;99818.84;5088675;28;8850;-74
2023/10/17 09:40:14;;;;;;;;;20.40;18.20;;;;;13.22;36.33;99826.41;5088899;28;8870;-76
2023/10/17 09:42:45;;;;;;;;;24.00;21.20;;;;;13.18;36.31;99822.97;5086790;28;8851;-75
2023/10/17 09:45:16;;;;;;;;;24.60;20.60;;;;;13.32;36.46;99830.56;5089454;28;8840;-75
2023/10/17 09:47:53;;;;;;;;;29.20;29.20;;;;;13.43;36.54;99815.28;5107175;28;8856;-73
2023/10/17 09:50:25;;;;;;;;;30.20;27.40;;;;;13.48;36.55;99807.19;5073394;28;8830;-76
2023/10/17 09:52:56;;;;;;;;;27.40;26.20;;;;;13.54;36.01;99804.38;5089791;28;8837;-74
2023/10/17 09:55:26;;;;;;;;;28.40;27.20;;;;;13.47;36.03;99794.94;5108838;28;9003;-74
2023/10/17 09:58:02;;;;;;;;;29.60;26.80;;;;;13.55;36.02;99799.97;5108478;28;9030;-72
2023/10/17 10:00:38;;;;;;;;;26.20;25.00;;;;;13.59;36.21;99783.97;5108333;28;8860;-74
2023/10/17 10:03:08;;;;;;;;;27.60;27.40;;;;;13.70;35.92;99781.03;5107472;28;8895;-76
2023/10/17 10:05:43;;;;;;;;;31.80;28.40;;;;;13.60;36.05;99776.91;5108649;28;8873;-73
2023/10/17 10:08:29;;;;;;;;;29.00;25.00;;;;;13.89;35.83;99779.59;5108380;28;8938;-74
2023/10/17 10:10:59;;;;;;;;;28.40;26.40;;;;;13.84;35.58;99772.72;5108781;28;8967;-71
2023/10/17 10:13:28;;;;;;;;;29.80;25.60;;;;;13.94;35.53;99779.47;5107152;28;8927;-71
2023/10/17 10:16:01;;;;;;;;;25.00;23.40;;;;;13.96;35.18;99774.97;5108399;28;8833;-72
2023/10/17 10:18:58;;;;;;;;;26.60;24.60;;;;;14.06;35.27;99762.34;5108265;28;8865;-73
2023/10/17 10:22:05;;;;;;;;;20.60;19.80;;;;;14.14;34.70;99760.31;5111818;27;8931;-78
2023/10/17 10:24:36;;;;;;;;;23.20;22.40;;;;;14.04;34.42;99754.44;5135375;27;8953;-73
2023/10/17 10:27:26;;;;;;;;;30.80;26.20;;;;;14.27;35.11;99747.56;5139456;27;8924;-73
2023/10/17 10:30:17;;;;;;;;;27.20;26.20;;;;;14.13;34.52;99745.38;5143707;27;8851;-79
2023/10/17 10:32:50;;;;;;;;;25.40;23.40;;;;;14.20;34.25;99743.38;5128947;27;8949;-73
2023/10/17 10:35:20;;;;;;;;;26.20;25.60;;;;;13.78;34.49;99747.31;5129867;27;8854;-76
2023/10/17 10:37:52;;;;;;;;;28.40;27.80;;;;;13.61;34.69;99737.25;5145457;27;8835;-72
2023/10/17 10:40:26;;;;;;;;;25.20;24.60;;;;;13.73;34.28;99743.94;5150433;27;8870;-74
2023/10/17 10:42:59;;;;;;;;;25.80;24.60;;;;;13.43;34.90;99741.34;5149436;27;8939;-71
2023/10/17 10:45:36;;;;;;;;;23.40;23.40;;;;;12.97;35.87;99744.41;5130905;27;8886;-72
2023/10/17 10:48:14;;;;;;;;;21.40;19.80;;;;;12.85;35.28;99741.22;5149236;27;8946;-72
2023/10/17 10:50:46;;;;;;;;;26.00;23.60;;;;;12.43;36.62;99744.03;5130792;27;8851;-70
2023/10/17 10:53:21;;;;;;;;;18.80;16.60;;;;;12.09;37.13;99746.66;5149414;27;8824;-70
2023/10/17 10:55:55;;;;;;;;;24.60;23.80;;;;;11.93;38.01;99743.50;5141301;27;8818;-70
2023/10/17 10:58:25;;;;;;;;;30.60;30.00;;;;;12.27;37.25;99737.41;5128418;27;8875;-70
2023/10/17 11:00:58;;;;;;;;;23.40;22.80;;;;;12.69;36.88;99738.09;5128714;27;8861;-72
2023/10/17 11:03:27;;;;;;;;;25.00;23.80;;;;;13.06;36.25;99725.69;5127599;27;8869;-74
2023/10/17 11:06:03;;;;;;;;;27.80;27.40;;;;;13.30;35.91;99726.75;5110219;27;8845;-71
2023/10/17 11:08:37;;;;;;;;;22.40;22.40;;;;;13.67;35.53;99723.00;5129361;27;8899;-70
2023/10/17 11:11:09;;;;;;;;;26.80;25.20;;;;;13.87;35.10;99719.78;5132619;27;8850;-71
2023/10/17 11:13:40;;;;;;;;;25.60;25.20;;;;;13.90;33.43;99724.94;5132529;27;8845;-71
2023/10/17 11:16:09;;;;;;;;;19.40;19.40;;;;;14.18;33.05;99724.91;5128254;27;8842;-75
2023/10/17 11:18:40;;;;;;;;;19.80;19.40;;;;;14.34;32.43;99719.09;5131059;27;8853;-73
2023/10/17 11:21:14;;;;;;;;;15.20;14.60;;;;;14.24;31.65;99718.56;5138221;27;8998;-74
2023/10/17 11:23:46;;;;;;;;;19.20;18.80;;;;;14.47;31.22;99716.00;5131113;27;8853;-71
2023/10/17 11:26:17;;;;;;;;;21.20;17.60;;;;;14.56;30.98;99716.59;5130921;27;8896;-72
2023/10/17 11:28:57;;;;;;;;;16.60;16.40;;;;;14.77;30.49;99717.66;5115626;27;8818;-70
2023/10/17 11:31:27;;;;;;;;;20.60;20.40;;;;;14.77;30.98;99713.25;5106204;27;8830;-73
2023/10/17 11:33:59;;;;;;;;;22.20;22.20;;;;;14.84;30.54;99706.81;5123006;27;8857;-71
2023/10/17 11:36:35;;;;;;;;;24.80;23.80;;;;;14.82;30.56;99703.34;5137110;27;8855;-70
2023/10/17 11:39:05;;;;;;;;;21.40;20.40;;;;;15.03;30.35;99701.69;5143465;27;8837;-71
2023/10/17 11:41:46;;;;;;;;;21.60;18.60;;;;;15.17;30.51;99700.31;5094750;27;8845;-76
2023/10/17 11:44:16;;;;;;;;;15.60;15.00;;;;;15.11;30.17;99697.91;5132258;27;8853;-69
2023/10/17 11:46:55;;;;;;;;;17.40;17.00;;;;;15.11;30.28;99704.06;5118307;27;8862;-69
2023/10/17 11:49:30;;;;;;;;;23.40;23.40;;;;;15.28;30.29;99699.91;5151563;27;8820;-73
2023/10/17 11:52:01;;;;;;;;;23.60;22.00;;;;;15.21;30.39;99694.00;5133633;27;8880;-75
2023/10/17 11:54:31;;;;;;;;;23.60;23.60;;;;;14.86;30.95;99699.66;5151925;27;8828;-72
2023/10/17 11:57:12;;;;;;;;;26.20;23.20;;;;;14.96;31.31;99694.94;5122266;27;9615;-68
2023/10/17 11:59:56;;;;;;;;;18.80;18.40;;;;;15.01;31.43;99692.09;5130911;27;8849;-72
2023/10/17 12:02:25;;;;;;;;;22.20;21.60;;;;;14.84;31.72;99696.22;5112609;27;8929;-70
2023/10/17 12:04:55;;;;;;;;;25.00;21.00;;;;;14.83;31.75;99696.28;5133988;27;8859;-70
2023/10/17 12:07:25;;;;;;;;;23.00;21.40;;;;;14.81;31.52;99687.50;5151661;27;8889;-71
2023/10/17 12:10:02;;;;;;;;;21.40;20.40;;;;;14.79;31.28;99684.94;5099546;27;8807;-68
2023/10/17 12:12:33;;;;;;;;;23.60;21.40;;;;;14.80;31.63;99684.03;5151126;27;8901;-70
2023/10/17 12:15:04;;;;;;;;;24.60;23.20;;;;;14.83;31.52;99683.91;5130935;27;8837;-73
2023/10/17 12:17:33;;;;;;;;;22.20;22.20;;;;;14.82;31.65;99690.13;5094469;27;8861;-75
2023/10/17 12:20:10;;;;;;;;;21.40;20.20;;;;;14.91;31.69;99688.94;5095473;27;8856;-71
2023/10/17 12:22:41;;;;;;;;;21.20;20.40;;;;;15.04;31.56;99682.25;5111845;27;8872;-70
2023/10/17 12:25:10;;;;;;;;;22.40;20.60;;;;;14.90;31.21;99683.69;5130682;27;8845;-71
2023/10/17 12:27:40;;;;;;;;;21.00;17.80;;;;;14.97;31.28;99679.91;5130780;27;8857;-71
2023/10/17 12:30:10;;;;;;;;;22.80;21.20;;;;;14.76;31.42;99669.19;5144666;27;9016;-73
2023/10/17 12:32:39;;;;;;;;;17.80;17.80;;;;;14.81;30.30;99664.59;5114699;27;10004;-70
2023/10/17 12:35:12;;;;;;;;;18.60;16.80;;;;;14.90;30.47;99662.50;5097879;27;8881;-73
2023/10/17 12:37:44;;;;;;;;;16.40;16.40;;;;;14.92;29.90;99660.66;5151176;27;8885;-74
2023/10/17 12:40:20;;;;;;;;;15.40;14.60;;;;;14.90;29.57;99655.44;5151168;27;8839;-72
2023/10/17 12:42:50;;;;;;;;;12.00;11.00;;;;;14.86;28.88;99657.31;5150522;27;8859;-76
2023/10/17 12:45:20;;;;;;;;;16.00;16.00;;;;;14.84;28.29;99655.66;5130557;27;8845;-74
2023/10/17 12:47:49;;;;;;;;;15.00;14.20;;;;;14.86;28.41;99651.16;5130874;27;8972;-72
2023/10/17 12:50:21;;;;;;;;;18.20;16.00;;;;;15.08;28.82;99656.53;5112121;27;8836;-72
2023/10/17 12:52:51;;;;;;;;;16.40;15.00;;;;;14.99;28.59;99648.94;5130590;27;8976;-73
2023/10/17 12:55:20;;;;;;;;;15.20;15.20;;;;;14.90;28.37;99646.63;5077687;27;8930;-73
2023/10/17 12:57:51;;;;;;;;;15.80;15.20;;;;;14.83;28.05;99649.50;5130974;27;8864;-71
2023/10/17 13:00:25;;;;;;;;;15.20;13.80;;;;;14.89;28.58;99647.56;5134226;27;9580;-72
2023/10/17 13:02:55;;;;;;;;;18.00;16.80;;;;;14.70;28.21;99640.25;5116726;27;8847;-71
2023/10/17 13:05:26;;;;;;;;;16.60;16.60;;;;;14.77;28.47;99652.41;5151026;27;8843;-72
2023/10/17 13:07:56;;;;;;;;;18.60;17.20;;;;;14.81;28.44;99647.81;5147336;27;8861;-72
2023/10/17 13:10:26;;;;;;;;;17.00;16.40;;;;;14.80;28.25;99644.31;5130437;27;8822;-73
2023/10/17 13:12:55;;;;;;;;;19.80;18.80;;;;;14.85;28.47;99649.47;5130548;27;8834;-77
2023/10/17 13:15:24;;;;;;;;;21.00;19.60;;;;;14.67;29.17;99649.16;5130934;27;8857;-77
2023/10/17 13:17:55;;;;;;;;;23.40;21.40;;;;;14.73;29.08;99644.59;5138246;27;8994;-74
2023/10/17 13:20:29;;;;;;;;;21.80;20.80;;;;;14.75;29.51;99642.75;5113949;27;8873;-76
2023/10/17 13:23:19;;;;;;;;;22.00;20.20;;;;;14.74;29.55;99639.25;5138410;27;8822;-75
2023/10/17 13:25:48;;;;;;;;;22.20;21.40;;;;;14.84;29.92;99645.06;5144142;27;8845;-77
2023/10/17 13:28:17;;;;;;;;;34.20;30.60;;;;;14.62;30.91;99650.25;5113425;27;8887;-76
2023/10/17 13:30:46;;;;;;;;;30.20;28.80;;;;;14.59;31.08;99648.59;5076352;27;8892;-76
2023/10/17 13:33:15;;;;;;;;;32.40;29.20;;;;;14.66;30.87;99649.25;5128422;27;8837;-73
2023/10/17 13:35:44;;;;;;;;;27.60;26.60;;;;;14.61;30.80;99653.81;5134975;27;8847;-74